Dissen, Missouri
Current Conditions -  °F | °C
As of 2:35 PM on Thursday 27 Nov 2014 (Local Time) from KFYG Reporting Station
Scattered Clouds Scattered Clouds  
Wind Chill: 31°   Ceiling: Unl
Heat Index: 37°   Visibility: 10mi
Dew Point: 21°   Wind: 9mph
Humidity: 52%   Direction: 290°WNW
Pressure: 30.44"   Gusts: 18mph
Location:  38.5502°N, 91.2585°W
Report Text: KFYG 272035Z AUTO 29008G16KT 10SM SCT036 03/M06 A3044 RMK AO2
Loading
Personal Weather Stations






























Interactive Weather Map New forecast layout! Learn more

10-Day Weather Forecast

Advertisements
Track Severe Weather on mobile